BIENTÔT MET'MAP
version 2.0 !

Prévue avant fin octobre,
la nouvelle version sera
plus belle, plus complète
et hébergée sur un serveur
3 fois plus puissant...
et toujours gratuite !


Pas compatible ?
Essayez la version Mobile !

SE CONNECTER : | S'inscrire | Disclaimer | Découvrir Orbifly |
Code OACI :

TAF - LTAE Akıncı Air Base - 27 May 2020 11:11 UTC - Data Source NOAA   


- Altitude de l'aérodrome : 2767 ft
- Pas de NOTAMs connus.


LTAE - Akıncı Air Base

Dernier METAR connu : 2015/08/11 07:54 LTAE 110754Z 30010KT 9999 -SHRA SCT040 SCT100 26/15 Q1013 NOSIG RMK RWY21 32010KT
TAF TAF LTAE
Valide du 27 à 09h jusqu'au 27 à 18h UTC


270740Z 2709/2718 18012KT 9999 SCT040
PROB30
TEMPO 2712/2715 20020G30KT -TSRA FEW025CB BKN030
BECMG 2715/2717 29012KT

Source NOAA


MET'MAP, la Météo Aéronautique d'un coup d'oeil ! - Copyright ORBIFLY Décembre 2007

Développement & Programmation : Alexandra Zaïnal
Co-Développement : Marc-Olivier Méhu
Soutien technique & logistique : Manuel Goepfert
Conception & Financement : Baudouin d'Aumeries